sensor_id;sensor_type;location;lat;lon;timestamp;P1;P2;P0
42510;PMS7003;28141;51.120;17.114;2023-02-15T00:01:18;23;15;9
42510;PMS7003;28141;51.120;17.114;2023-02-15T00:04:22;24;17;11
42510;PMS7003;28141;51.120;17.114;2023-02-15T00:07:32;27;15;11
42510;PMS7003;28141;51.120;17.114;2023-02-15T00:10:36;28;19;12
42510;PMS7003;28141;51.120;17.114;2023-02-15T00:13:39;31;20;11
42510;PMS7003;28141;51.120;17.114;2023-02-15T00:16:46;27;18;11
42510;PMS7003;28141;51.120;17.114;2023-02-15T00:20:16;25;17;11
42510;PMS7003;28141;51.120;17.114;2023-02-15T00:23:21;27;18;13
42510;PMS7003;28141;51.120;17.114;2023-02-15T00:26:25;29;18;12
42510;PMS7003;28141;51.120;17.114;2023-02-15T00:29:29;25;17;11
42510;PMS7003;28141;51.120;17.114;2023-02-15T00:32:32;29;19;12
42510;PMS7003;28141;51.120;17.114;2023-02-15T00:35:36;27;17;11
42510;PMS7003;28141;51.120;17.114;2023-02-15T00:38:39;35;23;12
42510;PMS7003;28141;51.120;17.114;2023-02-15T00:41:43;29;18;12
42510;PMS7003;28141;51.120;17.114;2023-02-15T00:44:47;29;19;12
42510;PMS7003;28141;51.120;17.114;2023-02-15T00:48:17;29;19;13
42510;PMS7003;28141;51.120;17.114;2023-02-15T00:51:21;30;20;13
42510;PMS7003;28141;51.120;17.114;2023-02-15T00:54:25;30;19;13
42510;PMS7003;28141;51.120;17.114;2023-02-15T00:57:28;28;18;12
42510;PMS7003;28141;51.120;17.114;2023-02-15T01:00:32;27;18;12
42510;PMS7003;28141;51.120;17.114;2023-02-15T01:03:36;28;18;13
42510;PMS7003;28141;51.120;17.114;2023-02-15T01:06:39;29;20;13
42510;PMS7003;28141;51.120;17.114;2023-02-15T01:09:43;29;20;15
42510;PMS7003;28141;51.120;17.114;2023-02-15T01:12:46;31;21;12
42510;PMS7003;28141;51.120;17.114;2023-02-15T01:15:53;31;22;13
42510;PMS7003;28141;51.120;17.114;2023-02-15T01:19:23;30;20;12
42510;PMS7003;28141;51.120;17.114;2023-02-15T01:22:27;31;21;13
42510;PMS7003;28141;51.120;17.114;2023-02-15T01:25:30;29;18;13
42510;PMS7003;28141;51.120;17.114;2023-02-15T01:28:33;31;20;12
42510;PMS7003;28141;51.120;17.114;2023-02-15T01:31:37;30;21;14
42510;PMS7003;28141;51.120;17.114;2023-02-15T01:34:41;29;20;12
42510;PMS7003;28141;51.120;17.114;2023-02-15T01:37:45;31;22;14
42510;PMS7003;28141;51.120;17.114;2023-02-15T01:40:50;30;20;13
42510;PMS7003;28141;51.120;17.114;2023-02-15T01:43:56;32;18;12
42510;PMS7003;28141;51.120;17.114;2023-02-15T01:47:01;31;21;14
42510;PMS7003;28141;51.120;17.114;2023-02-15T01:53:47;32;22;13
42510;PMS7003;28141;51.120;17.114;2023-02-15T01:57:04;31;22;13
42510;PMS7003;28141;51.120;17.114;2023-02-15T02:00:12;30;19;13
42510;PMS7003;28141;51.120;17.114;2023-02-15T02:03:20;33;24;14
42510;PMS7003;28141;51.120;17.114;2023-02-15T02:06:59;33;21;15
42510;PMS7003;28141;51.120;17.114;2023-02-15T02:10:04;33;22;14
42510;PMS7003;28141;51.120;17.114;2023-02-15T02:13:09;31;23;15
42510;PMS7003;28141;51.120;17.114;2023-02-15T02:22:51;31;20;14
42510;PMS7003;28141;51.120;17.114;2023-02-15T02:33:07;31;21;14
42510;PMS7003;28141;51.120;17.114;2023-02-15T02:46:33;30;21;16
42510;PMS7003;28141;51.120;17.114;2023-02-15T02:49:44;31;21;14
42510;PMS7003;28141;51.120;17.114;2023-02-15T02:52:49;35;22;13
42510;PMS7003;28141;51.120;17.114;2023-02-15T02:55:56;26;19;14
42510;PMS7003;28141;51.120;17.114;2023-02-15T02:59:10;36;24;14
42510;PMS7003;28141;51.120;17.114;2023-02-15T03:02:47;32;22;14
42510;PMS7003;28141;51.120;17.114;2023-02-15T03:05:58;33;21;15
42510;PMS7003;28141;51.120;17.114;2023-02-15T03:09:09;37;25;15
42510;PMS7003;28141;51.120;17.114;2023-02-15T03:12:39;32;23;15
42510;PMS7003;28141;51.120;17.114;2023-02-15T03:15:39;31;24;15
42510;PMS7003;28141;51.120;17.114;2023-02-15T03:19:28;33;22;15
42510;PMS7003;28141;51.120;17.114;2023-02-15T03:22:37;29;22;14
42510;PMS7003;28141;51.120;17.114;2023-02-15T03:25:56;31;23;14
42510;PMS7003;28141;51.120;17.114;2023-02-15T03:29:01;30;21;14
42510;PMS7003;28141;51.120;17.114;2023-02-15T03:32:09;29;20;14
42510;PMS7003;28141;51.120;17.114;2023-02-15T03:35:14;34;24;15
42510;PMS7003;28141;51.120;17.114;2023-02-15T03:38:20;36;23;14
42510;PMS7003;28141;51.120;17.114;2023-02-15T03:41:32;31;21;15
42510;PMS7003;28141;51.120;17.114;2023-02-15T03:48:29;31;22;14
42510;PMS7003;28141;51.120;17.114;2023-02-15T03:51:40;29;20;15
42510;PMS7003;28141;51.120;17.114;2023-02-15T03:54:47;32;21;14
42510;PMS7003;28141;51.120;17.114;2023-02-15T03:57:52;34;21;12
42510;PMS7003;28141;51.120;17.114;2023-02-15T04:01:13;29;20;14
42510;PMS7003;28141;51.120;17.114;2023-02-15T04:05:01;30;21;13
42510;PMS7003;28141;51.120;17.114;2023-02-15T04:08:04;29;21;14
42510;PMS7003;28141;51.120;17.114;2023-02-15T04:11:08;29;19;13
42510;PMS7003;28141;51.120;17.114;2023-02-15T04:14:11;27;19;12
42510;PMS7003;28141;51.120;17.114;2023-02-15T04:17:26;29;21;14
42510;PMS7003;28141;51.120;17.114;2023-02-15T04:20:30;33;20;14
42510;PMS7003;28141;51.120;17.114;2023-02-15T04:23:45;30;20;14
42510;PMS7003;28141;51.120;17.114;2023-02-15T04:27:29;30;20;14
42510;PMS7003;28141;51.120;17.114;2023-02-15T04:30:33;29;19;13
42510;PMS7003;28141;51.120;17.114;2023-02-15T04:33:36;31;21;14
42510;PMS7003;28141;51.120;17.114;2023-02-15T04:36:40;28;19;13
42510;PMS7003;28141;51.120;17.114;2023-02-15T04:39:44;30;22;13
42510;PMS7003;28141;51.120;17.114;2023-02-15T04:42:48;30;18;12
42510;PMS7003;28141;51.120;17.114;2023-02-15T04:45:52;29;19;13
42510;PMS7003;28141;51.120;17.114;2023-02-15T04:48:55;30;20;13
42510;PMS7003;28141;51.120;17.114;2023-02-15T04:51:59;28;18;14
42510;PMS7003;28141;51.120;17.114;2023-02-15T04:55:03;32;20;13
42510;PMS7003;28141;51.120;17.114;2023-02-15T04:58:08;30;21;14
42510;PMS7003;28141;51.120;17.114;2023-02-15T05:01:11;26;17;12
42510;PMS7003;28141;51.120;17.114;2023-02-15T05:04:15;28;19;12
42510;PMS7003;28141;51.120;17.114;2023-02-15T05:07:19;30;18;12
42510;PMS7003;28141;51.120;17.114;2023-02-15T05:10:23;27;18;12
42510;PMS7003;28141;51.120;17.114;2023-02-15T05:13:51;28;18;11
42510;PMS7003;28141;51.120;17.114;2023-02-15T05:16:55;25;17;12
42510;PMS7003;28141;51.120;17.114;2023-02-15T05:20:01;29;18;11
42510;PMS7003;28141;51.120;17.114;2023-02-15T05:23:04;27;18;12
42510;PMS7003;28141;51.120;17.114;2023-02-15T05:26:11;25;17;12
42510;PMS7003;28141;51.120;17.114;2023-02-15T05:29:30;24;15;11
42510;PMS7003;28141;51.120;17.114;2023-02-15T05:32:34;26;17;10
42510;PMS7003;28141;51.120;17.114;2023-02-15T05:35:37;26;17;12
42510;PMS7003;28141;51.120;17.114;2023-02-15T05:39:07;25;17;10
42510;PMS7003;28141;51.120;17.114;2023-02-15T05:42:11;30;17;11
42510;PMS7003;28141;51.120;17.114;2023-02-15T05:45:14;29;19;12
42510;PMS7003;28141;51.120;17.114;2023-02-15T05:48:18;26;18;11
42510;PMS7003;28141;51.120;17.114;2023-02-15T05:51:23;27;17;11
42510;PMS7003;28141;51.120;17.114;2023-02-15T05:54:26;28;18;11
42510;PMS7003;28141;51.120;17.114;2023-02-15T05:57:30;25;16;11
42510;PMS7003;28141;51.120;17.114;2023-02-15T06:00:34;31;18;12
42510;PMS7003;28141;51.120;17.114;2023-02-15T06:03:38;26;16;11
42510;PMS7003;28141;51.120;17.114;2023-02-15T06:06:42;27;15;11
42510;PMS7003;28141;51.120;17.114;2023-02-15T06:09:46;27;16;11
42510;PMS7003;28141;51.120;17.114;2023-02-15T06:13:18;28;19;12
42510;PMS7003;28141;51.120;17.114;2023-02-15T06:16:21;26;15;11
42510;PMS7003;28141;51.120;17.114;2023-02-15T06:19:25;25;17;12
42510;PMS7003;28141;51.120;17.114;2023-02-15T06:22:29;30;19;12
42510;PMS7003;28141;51.120;17.114;2023-02-15T06:25:32;30;18;10
42510;PMS7003;28141;51.120;17.114;2023-02-15T06:28:36;28;16;11
42510;PMS7003;28141;51.120;17.114;2023-02-15T06:31:40;30;18;12
42510;PMS7003;28141;51.120;17.114;2023-02-15T06:34:43;25;17;12
42510;PMS7003;28141;51.120;17.114;2023-02-15T06:37:46;25;17;12
42510;PMS7003;28141;51.120;17.114;2023-02-15T06:40:50;25;16;11
42510;PMS7003;28141;51.120;17.114;2023-02-15T06:43:54;26;17;12
42510;PMS7003;28141;51.120;17.114;2023-02-15T06:47:23;27;16;12
42510;PMS7003;28141;51.120;17.114;2023-02-15T06:50:26;28;17;11
42510;PMS7003;28141;51.120;17.114;2023-02-15T06:53:30;28;19;12
42510;PMS7003;28141;51.120;17.114;2023-02-15T06:56:33;28;19;12
42510;PMS7003;28141;51.120;17.114;2023-02-15T06:59:37;27;17;12
42510;PMS7003;28141;51.120;17.114;2023-02-15T07:02:40;29;18;13
42510;PMS7003;28141;51.120;17.114;2023-02-15T07:05:44;26;15;12
42510;PMS7003;28141;51.120;17.114;2023-02-15T07:08:50;29;18;12
42510;PMS7003;28141;51.120;17.114;2023-02-15T07:11:53;26;17;12
42510;PMS7003;28141;51.120;17.114;2023-02-15T07:15:35;35;23;13
42510;PMS7003;28141;51.120;17.114;2023-02-15T07:18:39;28;19;13
42510;PMS7003;28141;51.120;17.114;2023-02-15T07:21:43;31;19;14
42510;PMS7003;28141;51.120;17.114;2023-02-15T07:24:48;34;22;16
42510;PMS7003;28141;51.120;17.114;2023-02-15T07:31:03;33;24;15
42510;PMS7003;28141;51.120;17.114;2023-02-15T07:34:07;31;22;14
42510;PMS7003;28141;51.120;17.114;2023-02-15T07:37:11;30;21;15
42510;PMS7003;28141;51.120;17.114;2023-02-15T07:40:15;31;21;14
42510;PMS7003;28141;51.120;17.114;2023-02-15T07:43:18;32;22;15
42510;PMS7003;28141;51.120;17.114;2023-02-15T07:46:22;30;20;14
42510;PMS7003;28141;51.120;17.114;2023-02-15T07:49:51;30;20;14
42510;PMS7003;28141;51.120;17.114;2023-02-15T07:52:54;30;20;14
42510;PMS7003;28141;51.120;17.114;2023-02-15T07:55:58;31;19;13
42510;PMS7003;28141;51.120;17.114;2023-02-15T07:59:03;29;18;13
42510;PMS7003;28141;51.120;17.114;2023-02-15T08:02:11;32;21;13
42510;PMS7003;28141;51.120;17.114;2023-02-15T08:05:17;27;18;12
42510;PMS7003;28141;51.120;17.114;2023-02-15T08:08:21;30;22;14
42510;PMS7003;28141;51.120;17.114;2023-02-15T08:11:58;32;22;12
42510;PMS7003;28141;51.120;17.114;2023-02-15T08:15:02;27;17;12
42510;PMS7003;28141;51.120;17.114;2023-02-15T08:18:06;31;18;11
42510;PMS7003;28141;51.120;17.114;2023-02-15T08:21:10;29;19;12
42510;PMS7003;28141;51.120;17.114;2023-02-15T08:24:14;27;18;12
42510;PMS7003;28141;51.120;17.114;2023-02-15T08:27:20;24;17;12
42510;PMS7003;28141;51.120;17.114;2023-02-15T08:30:29;24;16;10
42510;PMS7003;28141;51.120;17.114;2023-02-15T08:33:32;26;18;12
42510;PMS7003;28141;51.120;17.114;2023-02-15T08:37:01;27;17;10
42510;PMS7003;28141;51.120;17.114;2023-02-15T08:40:06;28;17;11
42510;PMS7003;28141;51.120;17.114;2023-02-15T08:43:10;24;16;10
42510;PMS7003;28141;51.120;17.114;2023-02-15T08:46:14;25;15;11
42510;PMS7003;28141;51.120;17.114;2023-02-15T08:49:20;25;16;10
42510;PMS7003;28141;51.120;17.114;2023-02-15T08:52:24;23;15;10
42510;PMS7003;28141;51.120;17.114;2023-02-15T08:55:28;23;15;10
42510;PMS7003;28141;51.120;17.114;2023-02-15T08:58:31;23;16;9
42510;PMS7003;28141;51.120;17.114;2023-02-15T09:02:00;21;13;8
42510;PMS7003;28141;51.120;17.114;2023-02-15T09:05:05;21;11;8
42510;PMS7003;28141;51.120;17.114;2023-02-15T09:08:09;24;14;9
42510;PMS7003;28141;51.120;17.114;2023-02-15T09:11:14;22;14;10
42510;PMS7003;28141;51.120;17.114;2023-02-15T09:14:26;26;14;9
42510;PMS7003;28141;51.120;17.114;2023-02-15T09:17:30;24;13;9
42510;PMS7003;28141;51.120;17.114;2023-02-15T09:20:37;20;12;8
42510;PMS7003;28141;51.120;17.114;2023-02-15T09:24:06;20;13;9
42510;PMS7003;28141;51.120;17.114;2023-02-15T09:27:11;20;12;8
42510;PMS7003;28141;51.120;17.114;2023-02-15T09:30:15;20;12;9
42510;PMS7003;28141;51.120;17.114;2023-02-15T09:33:19;23;14;9
42510;PMS7003;28141;51.120;17.114;2023-02-15T09:36:26;22;12;8
42510;PMS7003;28141;51.120;17.114;2023-02-15T09:39:35;22;14;9
42510;PMS7003;28141;51.120;17.114;2023-02-15T10:13:31;22;13;9
42510;PMS7003;28141;51.120;17.114;2023-02-15T10:20:35;22;14;10
42510;PMS7003;28141;51.120;17.114;2023-02-15T10:26:58;22;13;9
42510;PMS7003;28141;51.120;17.114;2023-02-15T10:30:13;21;12;8
42510;PMS7003;28141;51.120;17.114;2023-02-15T10:33:47;22;14;9
42510;PMS7003;28141;51.120;17.114;2023-02-15T10:47:14;20;13;8
42510;PMS7003;28141;51.120;17.114;2023-02-15T11:00:37;21;13;8
42510;PMS7003;28141;51.120;17.114;2023-02-15T11:07:06;19;11;8
42510;PMS7003;28141;51.120;17.114;2023-02-15T11:13:57;22;14;9
42510;PMS7003;28141;51.120;17.114;2023-02-15T11:17:08;23;14;9
42510;PMS7003;28141;51.120;17.114;2023-02-15T11:20:18;24;13;9
42510;PMS7003;28141;51.120;17.114;2023-02-15T11:23:33;20;13;9
42510;PMS7003;28141;51.120;17.114;2023-02-15T11:27:17;22;13;10
42510;PMS7003;28141;51.120;17.114;2023-02-15T11:30:46;21;12;9
42510;PMS7003;28141;51.120;17.114;2023-02-15T11:33:51;23;12;8
42510;PMS7003;28141;51.120;17.114;2023-02-15T11:47:42;21;15;10
42510;PMS7003;28141;51.120;17.114;2023-02-15T11:50:46;25;15;10
42510;PMS7003;28141;51.120;17.114;2023-02-15T11:53:50;22;13;9
42510;PMS7003;28141;51.120;17.114;2023-02-15T11:56:59;20;12;8
42510;PMS7003;28141;51.120;17.114;2023-02-15T12:00:14;22;14;9
42510;PMS7003;28141;51.120;17.114;2023-02-15T12:03:27;20;12;9
42510;PMS7003;28141;51.120;17.114;2023-02-15T12:13:34;21;13;9
42510;PMS7003;28141;51.120;17.114;2023-02-15T12:20:23;25;15;10
42510;PMS7003;28141;51.120;17.114;2023-02-15T12:23:31;26;14;10
42510;PMS7003;28141;51.120;17.114;2023-02-15T12:26:37;24;15;10
42510;PMS7003;28141;51.120;17.114;2023-02-15T12:29:42;24;14;9
42510;PMS7003;28141;51.120;17.114;2023-02-15T12:32:53;22;13;9
42510;PMS7003;28141;51.120;17.114;2023-02-15T12:39:55;25;15;10
42510;PMS7003;28141;51.120;17.114;2023-02-15T12:43:00;25;16;10
42510;PMS7003;28141;51.120;17.114;2023-02-15T12:46:19;23;14;9
42510;PMS7003;28141;51.120;17.114;2023-02-15T12:50:36;20;13;8
42510;PMS7003;28141;51.120;17.114;2023-02-15T12:53:23;21;13;10
42510;PMS7003;28141;51.120;17.114;2023-02-15T12:56:34;24;14;9
42510;PMS7003;28141;51.120;17.114;2023-02-15T12:59:48;22;14;9
42510;PMS7003;28141;51.120;17.114;2023-02-15T13:03:22;21;13;9
42510;PMS7003;28141;51.120;17.114;2023-02-15T13:06:27;21;11;8
42510;PMS7003;28141;51.120;17.114;2023-02-15T13:11:12;23;13;10
42510;PMS7003;28141;51.120;17.114;2023-02-15T13:15:22;22;14;9
42510;PMS7003;28141;51.120;17.114;2023-02-15T13:17:34;24;15;10
42510;PMS7003;28141;51.120;17.114;2023-02-15T13:20:38;21;13;8
42510;PMS7003;28141;51.120;17.114;2023-02-15T13:24:05;24;14;9
42510;PMS7003;28141;51.120;17.114;2023-02-15T13:27:34;21;13;9
42510;PMS7003;28141;51.120;17.114;2023-02-15T13:33:56;24;14;9
42510;PMS7003;28141;51.120;17.114;2023-02-15T14:00:56;23;13;9
42510;PMS7003;28141;51.120;17.114;2023-02-15T14:24:37;23;14;9
42510;PMS7003;28141;51.120;17.114;2023-02-15T14:31:04;19;12;8
42510;PMS7003;28141;51.120;17.114;2023-02-15T14:47:44;20;13;9
42510;PMS7003;28141;51.120;17.114;2023-02-15T15:01:05;22;13;9
42510;PMS7003;28141;51.120;17.114;2023-02-15T15:04:21;22;12;8
42510;PMS7003;28141;51.120;17.114;2023-02-15T15:07:57;19;12;8
42510;PMS7003;28141;51.120;17.114;2023-02-15T15:27:51;19;12;9
42510;PMS7003;28141;51.120;17.114;2023-02-15T15:30:57;20;13;9
42510;PMS7003;28141;51.120;17.114;2023-02-15T15:51:23;21;13;8
42510;PMS7003;28141;51.120;17.114;2023-02-15T15:54:36;22;14;9
42510;PMS7003;28141;51.120;17.114;2023-02-15T15:57:43;22;12;8
42510;PMS7003;28141;51.120;17.114;2023-02-15T16:00:54;20;12;9
42510;PMS7003;28141;51.120;17.114;2023-02-15T16:04:02;21;12;8
42510;PMS7003;28141;51.120;17.114;2023-02-15T16:10:50;24;14;8
42510;PMS7003;28141;51.120;17.114;2023-02-15T16:13:53;22;14;8
42510;PMS7003;28141;51.120;17.114;2023-02-15T16:16:58;21;13;9
42510;PMS7003;28141;51.120;17.114;2023-02-15T16:20:12;23;14;8
42510;PMS7003;28141;51.120;17.114;2023-02-15T16:29:51;24;14;9
42510;PMS7003;28141;51.120;17.114;2023-02-15T16:33:21;23;16;10
42510;PMS7003;28141;51.120;17.114;2023-02-15T16:36:25;24;17;11
42510;PMS7003;28141;51.120;17.114;2023-02-15T16:39:30;27;16;11
42510;PMS7003;28141;51.120;17.114;2023-02-15T16:42:43;29;19;12
42510;PMS7003;28141;51.120;17.114;2023-02-15T16:45:46;28;19;12
42510;PMS7003;28141;51.120;17.114;2023-02-15T16:48:51;26;18;12
42510;PMS7003;28141;51.120;17.114;2023-02-15T16:51:58;29;18;12
42510;PMS7003;28141;51.120;17.114;2023-02-15T16:58:45;28;20;12
42510;PMS7003;28141;51.120;17.114;2023-02-15T17:01:52;28;19;14
42510;PMS7003;28141;51.120;17.114;2023-02-15T17:11:50;34;20;14
42510;PMS7003;28141;51.120;17.114;2023-02-15T17:14:54;31;21;13
42510;PMS7003;28141;51.120;17.114;2023-02-15T17:17:58;28;19;14
42510;PMS7003;28141;51.120;17.114;2023-02-15T17:21:10;38;27;18
42510;PMS7003;28141;51.120;17.114;2023-02-15T17:24:27;37;22;14
42510;PMS7003;28141;51.120;17.114;2023-02-15T17:28:03;30;21;13
42510;PMS7003;28141;51.120;17.114;2023-02-15T17:31:08;31;23;15
42510;PMS7003;28141;51.120;17.114;2023-02-15T17:34:40;32;22;15
42510;PMS7003;28141;51.120;17.114;2023-02-15T17:37:31;30;21;13
42510;PMS7003;28141;51.120;17.114;2023-02-15T17:40:46;33;21;15
42510;PMS7003;28141;51.120;17.114;2023-02-15T17:44:14;34;24;15
42510;PMS7003;28141;51.120;17.114;2023-02-15T17:47:21;30;21;14
42510;PMS7003;28141;51.120;17.114;2023-02-15T17:50:31;29;20;13
42510;PMS7003;28141;51.120;17.114;2023-02-15T17:53:36;32;22;15
42510;PMS7003;28141;51.120;17.114;2023-02-15T17:56:39;35;23;15
42510;PMS7003;28141;51.120;17.114;2023-02-15T17:59:43;29;21;14
42510;PMS7003;28141;51.120;17.114;2023-02-15T18:03:23;34;23;16
42510;PMS7003;28141;51.120;17.114;2023-02-15T18:06:41;37;26;16
42510;PMS7003;28141;51.120;17.114;2023-02-15T18:09:58;33;23;15
42510;PMS7003;28141;51.120;17.114;2023-02-15T18:13:14;32;24;15
42510;PMS7003;28141;51.120;17.114;2023-02-15T18:16:42;34;26;17
42510;PMS7003;28141;51.120;17.114;2023-02-15T18:19:47;36;24;17
42510;PMS7003;28141;51.120;17.114;2023-02-15T18:22:51;35;24;16
42510;PMS7003;28141;51.120;17.114;2023-02-15T18:25:56;30;22;15
42510;PMS7003;28141;51.120;17.114;2023-02-15T18:28:59;36;26;17
42510;PMS7003;28141;51.120;17.114;2023-02-15T18:32:03;35;24;16
42510;PMS7003;28141;51.120;17.114;2023-02-15T18:35:15;33;23;15
42510;PMS7003;28141;51.120;17.114;2023-02-15T18:38:48;35;24;16
42510;PMS7003;28141;51.120;17.114;2023-02-15T18:41:53;38;28;17
42510;PMS7003;28141;51.120;17.114;2023-02-15T18:44:57;37;25;17
42510;PMS7003;28141;51.120;17.114;2023-02-15T18:48:05;39;26;17
42510;PMS7003;28141;51.120;17.114;2023-02-15T18:51:16;35;25;16
42510;PMS7003;28141;51.120;17.114;2023-02-15T18:54:22;38;27;18
42510;PMS7003;28141;51.120;17.114;2023-02-15T18:57:27;37;28;18
42510;PMS7003;28141;51.120;17.114;2023-02-15T19:00:32;34;25;17
42510;PMS7003;28141;51.120;17.114;2023-02-15T19:04:02;42;29;19
42510;PMS7003;28141;51.120;17.114;2023-02-15T19:07:05;42;30;20
42510;PMS7003;28141;51.120;17.114;2023-02-15T19:10:23;39;27;17
42510;PMS7003;28141;51.120;17.114;2023-02-15T19:13:29;39;28;18
42510;PMS7003;28141;51.120;17.114;2023-02-15T19:16:34;37;25;17
42510;PMS7003;28141;51.120;17.114;2023-02-15T19:19:39;38;27;17
42510;PMS7003;28141;51.120;17.114;2023-02-15T19:22:42;37;26;17
42510;PMS7003;28141;51.120;17.114;2023-02-15T19:25:49;41;28;18
42510;PMS7003;28141;51.120;17.114;2023-02-15T19:29:24;39;26;17
42510;PMS7003;28141;51.120;17.114;2023-02-15T19:32:29;37;26;18
42510;PMS7003;28141;51.120;17.114;2023-02-15T19:35:33;36;26;18
42510;PMS7003;28141;51.120;17.114;2023-02-15T19:38:37;39;28;17
42510;PMS7003;28141;51.120;17.114;2023-02-15T19:41:43;39;27;16
42510;PMS7003;28141;51.120;17.114;2023-02-15T19:44:46;38;27;17
42510;PMS7003;28141;51.120;17.114;2023-02-15T19:47:50;39;28;19
42510;PMS7003;28141;51.120;17.114;2023-02-15T19:50:56;41;29;18
42510;PMS7003;28141;51.120;17.114;2023-02-15T19:54:00;38;26;18
42510;PMS7003;28141;51.120;17.114;2023-02-15T19:57:04;38;26;18
42510;PMS7003;28141;51.120;17.114;2023-02-15T20:03:48;39;26;17
42510;PMS7003;28141;51.120;17.114;2023-02-15T20:06:55;36;26;16
42510;PMS7003;28141;51.120;17.114;2023-02-15T20:10:01;37;25;15
42510;PMS7003;28141;51.120;17.114;2023-02-15T20:13:08;37;27;17
42510;PMS7003;28141;51.120;17.114;2023-02-15T20:16:17;40;27;17
42510;PMS7003;28141;51.120;17.114;2023-02-15T20:19:21;37;27;18
42510;PMS7003;28141;51.120;17.114;2023-02-15T20:22:25;35;23;16
42510;PMS7003;28141;51.120;17.114;2023-02-15T20:25:30;35;25;17
42510;PMS7003;28141;51.120;17.114;2023-02-15T20:28:35;42;29;19
42510;PMS7003;28141;51.120;17.114;2023-02-15T20:31:39;36;25;17
42510;PMS7003;28141;51.120;17.114;2023-02-15T20:35:12;36;26;17
42510;PMS7003;28141;51.120;17.114;2023-02-15T20:41:31;39;25;17
42510;PMS7003;28141;51.120;17.114;2023-02-15T20:44:38;37;26;17
42510;PMS7003;28141;51.120;17.114;2023-02-15T20:47:43;39;27;19
42510;PMS7003;28141;51.120;17.114;2023-02-15T20:50:50;36;26;17
42510;PMS7003;28141;51.120;17.114;2023-02-15T20:53:55;41;27;17
42510;PMS7003;28141;51.120;17.114;2023-02-15T20:56:59;39;29;17
42510;PMS7003;28141;51.120;17.114;2023-02-15T21:00:04;39;28;18
42510;PMS7003;28141;51.120;17.114;2023-02-15T21:03:38;38;28;17
42510;PMS7003;28141;51.120;17.114;2023-02-15T21:06:42;38;28;18
42510;PMS7003;28141;51.120;17.114;2023-02-15T21:09:46;41;27;17
42510;PMS7003;28141;51.120;17.114;2023-02-15T21:12:51;40;27;18
42510;PMS7003;28141;51.120;17.114;2023-02-15T21:15:56;36;26;18
42510;PMS7003;28141;51.120;17.114;2023-02-15T21:19:01;40;28;18
42510;PMS7003;28141;51.120;17.114;2023-02-15T21:22:04;37;25;17
42510;PMS7003;28141;51.120;17.114;2023-02-15T21:25:18;39;29;17
42510;PMS7003;28141;51.120;17.114;2023-02-15T21:28:22;38;27;17
42510;PMS7003;28141;51.120;17.114;2023-02-15T21:31:28;40;27;19
42510;PMS7003;28141;51.120;17.114;2023-02-15T21:34:31;39;27;18
42510;PMS7003;28141;51.120;17.114;2023-02-15T21:37:35;35;24;16
42510;PMS7003;28141;51.120;17.114;2023-02-15T21:40:41;38;27;17
42510;PMS7003;28141;51.120;17.114;2023-02-15T21:43:45;38;27;18
42510;PMS7003;28141;51.120;17.114;2023-02-15T21:47:01;37;27;18
42510;PMS7003;28141;51.120;17.114;2023-02-15T21:50:17;43;30;19
42510;PMS7003;28141;51.120;17.114;2023-02-15T21:53:35;40;26;17
42510;PMS7003;28141;51.120;17.114;2023-02-15T21:57:16;38;27;17
42510;PMS7003;28141;51.120;17.114;2023-02-15T22:00:20;42;29;17
42510;PMS7003;28141;51.120;17.114;2023-02-15T22:03:29;42;28;18
42510;PMS7003;28141;51.120;17.114;2023-02-15T22:06:37;41;28;18
42510;PMS7003;28141;51.120;17.114;2023-02-15T22:09:42;39;27;19
42510;PMS7003;28141;51.120;17.114;2023-02-15T22:12:45;39;27;19
42510;PMS7003;28141;51.120;17.114;2023-02-15T22:15:49;41;29;19
42510;PMS7003;28141;51.120;17.114;2023-02-15T22:18:53;40;30;19
42510;PMS7003;28141;51.120;17.114;2023-02-15T22:21:56;42;29;19
42510;PMS7003;28141;51.120;17.114;2023-02-15T22:25:00;39;28;18
42510;PMS7003;28141;51.120;17.114;2023-02-15T22:28:03;42;29;19
42510;PMS7003;28141;51.120;17.114;2023-02-15T22:31:11;44;30;20
42510;PMS7003;28141;51.120;17.114;2023-02-15T22:38:04;41;30;20
42510;PMS7003;28141;51.120;17.114;2023-02-15T22:41:08;43;31;21
42510;PMS7003;28141;51.120;17.114;2023-02-15T22:44:12;45;31;20
42510;PMS7003;28141;51.120;17.114;2023-02-15T22:50:31;44;30;20
42510;PMS7003;28141;51.120;17.114;2023-02-15T22:53:35;43;30;19
42510;PMS7003;28141;51.120;17.114;2023-02-15T22:56:39;42;31;20
42510;PMS7003;28141;51.120;17.114;2023-02-15T22:59:50;45;32;21
42510;PMS7003;28141;51.120;17.114;2023-02-15T23:02:54;44;31;19
42510;PMS7003;28141;51.120;17.114;2023-02-15T23:05:58;47;33;21
42510;PMS7003;28141;51.120;17.114;2023-02-15T23:09:01;50;33;21
42510;PMS7003;28141;51.120;17.114;2023-02-15T23:12:20;45;31;20
42510;PMS7003;28141;51.120;17.114;2023-02-15T23:15:53;49;35;22
42510;PMS7003;28141;51.120;17.114;2023-02-15T23:19:01;45;32;21
42510;PMS7003;28141;51.120;17.114;2023-02-15T23:22:08;47;32;21
42510;PMS7003;28141;51.120;17.114;2023-02-15T23:25:19;47;31;21
42510;PMS7003;28141;51.120;17.114;2023-02-15T23:28:31;46;33;22
42510;PMS7003;28141;51.120;17.114;2023-02-15T23:31:37;44;32;22
42510;PMS7003;28141;51.120;17.114;2023-02-15T23:34:44;48;33;23
42510;PMS7003;28141;51.120;17.114;2023-02-15T23:37:47;52;36;22
42510;PMS7003;28141;51.120;17.114;2023-02-15T23:41:15;46;33;21
42510;PMS7003;28141;51.120;17.114;2023-02-15T23:44:24;51;35;23
42510;PMS7003;28141;51.120;17.114;2023-02-15T23:47:29;48;34;22
42510;PMS7003;28141;51.120;17.114;2023-02-15T23:50:47;49;34;23
42510;PMS7003;28141;51.120;17.114;2023-02-15T23:53:50;48;34;22
42510;PMS7003;28141;51.120;17.114;2023-02-15T23:56:54;52;36;23
